createdAt,value
2023-04-18T00:01:27.516Z,16.80
2023-04-18T00:03:54.804Z,16.80
2023-04-18T00:06:22.503Z,16.80
2023-04-18T00:08:49.670Z,16.80
2023-04-18T00:11:16.828Z,16.80
2023-04-18T00:13:44.460Z,16.70
2023-04-18T00:16:13.312Z,16.70
2023-04-18T00:18:40.637Z,16.70
2023-04-18T00:21:08.629Z,16.70
2023-04-18T00:23:36.299Z,16.60
2023-04-18T00:26:03.600Z,16.60
2023-04-18T00:28:30.738Z,16.60
2023-04-18T00:30:58.076Z,16.60
2023-04-18T00:33:25.363Z,16.50
2023-04-18T00:35:53.830Z,16.50
2023-04-18T00:38:20.995Z,16.50
2023-04-18T00:40:48.488Z,16.50
2023-04-18T00:43:17.005Z,16.50
2023-04-18T00:45:44.806Z,16.50
2023-04-18T00:48:12.096Z,16.50
2023-04-18T00:50:41.673Z,16.50
2023-04-18T00:53:10.997Z,16.40
2023-04-18T00:55:39.054Z,16.50
2023-04-18T00:58:06.460Z,16.40
2023-04-18T01:00:34.931Z,16.40
2023-04-18T01:03:02.251Z,16.30
2023-04-18T01:05:29.738Z,16.30
2023-04-18T01:08:01.040Z,16.20
2023-04-18T01:10:29.929Z,16.10
2023-04-18T01:13:23.556Z,16.00
2023-04-18T01:15:52.520Z,15.90
2023-04-18T01:18:22.509Z,15.80
2023-04-18T01:20:54.822Z,15.70
2023-04-18T01:23:21.953Z,15.60
2023-04-18T01:25:49.478Z,15.60
2023-04-18T01:28:21.336Z,15.50
2023-04-18T01:30:49.150Z,15.50
2023-04-18T01:33:16.323Z,15.50
2023-04-18T01:35:44.653Z,15.50
2023-04-18T01:38:11.815Z,15.50
2023-04-18T01:40:38.994Z,15.50
2023-04-18T01:43:06.159Z,15.60
2023-04-18T01:45:33.325Z,15.60
2023-04-18T01:48:02.220Z,15.60
2023-04-18T01:50:29.468Z,15.70
2023-04-18T01:52:56.656Z,15.70
2023-04-18T01:55:23.784Z,15.70
2023-04-18T01:57:51.342Z,15.70
2023-04-18T02:00:20.381Z,15.70
2023-04-18T02:02:47.707Z,15.70
2023-04-18T02:05:15.176Z,15.60
2023-04-18T02:07:42.828Z,15.70
2023-04-18T02:10:11.341Z,15.70
2023-04-18T02:12:38.609Z,15.80
2023-04-18T02:15:06.570Z,15.80
2023-04-18T02:17:37.011Z,15.80
2023-04-18T02:20:04.807Z,15.90
2023-04-18T02:22:32.089Z,15.90
2023-04-18T02:25:02.308Z,15.90
2023-04-18T02:27:31.381Z,15.90
2023-04-18T02:29:58.528Z,16.00
2023-04-18T02:32:26.005Z,16.00
2023-04-18T02:34:53.360Z,16.00
2023-04-18T02:37:20.504Z,16.00
2023-04-18T02:39:48.178Z,15.90
2023-04-18T02:42:15.490Z,15.90
2023-04-18T02:44:42.652Z,15.90
2023-04-18T02:47:10.122Z,15.90
2023-04-18T02:49:40.245Z,15.80
2023-04-18T02:52:07.349Z,15.80
2023-04-18T02:54:34.790Z,15.80
2023-04-18T02:57:07.523Z,15.80
2023-04-18T02:59:54.919Z,15.80
2023-04-18T03:02:22.146Z,15.80
2023-04-18T03:04:54.609Z,15.80
2023-04-18T03:07:22.422Z,15.80
2023-04-18T03:09:51.485Z,15.70
2023-04-18T03:12:24.089Z,15.70
2023-04-18T03:14:52.324Z,15.80
2023-04-18T03:17:20.818Z,15.70
2023-04-18T03:19:49.843Z,15.70
2023-04-18T03:22:19.973Z,15.70
2023-04-18T03:24:53.973Z,15.70
2023-04-18T03:27:23.795Z,15.70
2023-04-18T03:29:50.936Z,15.60
2023-04-18T03:32:18.541Z,15.50
2023-04-18T03:34:45.798Z,15.50
2023-04-18T03:37:13.096Z,15.50
2023-04-18T03:39:46.081Z,15.50
2023-04-18T03:42:14.011Z,15.30
2023-04-18T03:44:42.376Z,15.30
2023-04-18T03:47:09.640Z,15.30
2023-04-18T03:49:41.028Z,15.40
2023-04-18T03:52:08.615Z,15.30
2023-04-18T03:54:35.896Z,15.40
2023-04-18T03:57:04.461Z,15.30
2023-04-18T03:59:34.752Z,15.30
2023-04-18T04:02:02.142Z,15.30
2023-04-18T04:04:29.392Z,15.30
2023-04-18T04:06:58.074Z,15.30
2023-04-18T04:09:25.546Z,15.30
2023-04-18T04:11:52.783Z,15.30
2023-04-18T04:14:20.282Z,15.30
2023-04-18T04:16:51.665Z,15.30
2023-04-18T04:19:19.954Z,15.30
2023-04-18T04:21:55.145Z,15.30
2023-04-18T04:24:22.791Z,15.30
2023-04-18T04:26:51.536Z,15.30
2023-04-18T04:29:23.790Z,15.40
2023-04-18T04:31:52.635Z,15.40
2023-04-18T04:34:31.024Z,15.30
2023-04-18T04:36:58.852Z,15.30
2023-04-18T04:39:27.683Z,15.40
2023-04-18T04:42:15.405Z,15.40
2023-04-18T04:44:56.535Z,15.40
2023-04-18T04:47:24.159Z,15.40
2023-04-18T04:49:51.454Z,15.40
2023-04-18T04:52:18.665Z,15.40
2023-04-18T04:54:46.640Z,15.40
2023-04-18T04:57:16.181Z,15.40
2023-04-18T04:59:43.774Z,15.40
2023-04-18T05:02:11.598Z,15.40
2023-04-18T05:04:39.153Z,15.50
2023-04-18T05:07:06.475Z,15.50
2023-04-18T05:09:33.664Z,15.50
2023-04-18T05:12:01.929Z,15.50
2023-04-18T05:14:29.016Z,15.60
2023-04-18T05:16:56.207Z,15.50
2023-04-18T05:19:23.542Z,15.60
2023-04-18T05:21:51.184Z,15.60
2023-04-18T05:24:18.506Z,15.60
2023-04-18T05:26:45.710Z,15.60
2023-04-18T05:29:12.877Z,15.60
2023-04-18T05:31:40.006Z,15.60
2023-04-18T05:34:07.247Z,15.60
2023-04-18T05:36:34.379Z,15.60
2023-04-18T05:39:01.647Z,15.60
2023-04-18T05:41:28.939Z,15.60
2023-04-18T05:44:04.683Z,15.60
2023-04-18T05:46:32.984Z,15.60
2023-04-18T05:49:00.238Z,15.60
2023-04-18T05:51:28.496Z,15.70
2023-04-18T05:53:55.836Z,15.70
2023-04-18T05:56:23.043Z,15.70
2023-04-18T05:58:51.311Z,15.80
2023-04-18T06:01:21.498Z,15.80
2023-04-18T06:03:49.078Z,15.90
2023-04-18T06:06:16.495Z,15.90
2023-04-18T06:08:43.797Z,16.00
2023-04-18T06:11:10.880Z,16.00
2023-04-18T06:13:38.015Z,16.10
2023-04-18T06:16:05.927Z,16.10
2023-04-18T06:18:33.229Z,16.20
2023-04-18T06:21:00.555Z,16.20
2023-04-18T06:23:27.732Z,16.20
2023-04-18T06:25:55.096Z,16.30
2023-04-18T06:28:22.381Z,16.30
2023-04-18T06:30:49.589Z,16.30
2023-04-18T06:33:16.722Z,16.30
2023-04-18T06:35:43.889Z,16.30
2023-04-18T06:38:11.776Z,16.30
2023-04-18T06:40:38.933Z,16.30
2023-04-18T06:43:06.177Z,16.30
2023-04-18T06:45:33.480Z,16.30
2023-04-18T06:48:03.562Z,16.30
2023-04-18T06:50:31.148Z,16.30
2023-04-18T06:52:58.539Z,16.30
2023-04-18T06:55:25.707Z,16.30
2023-04-18T06:57:53.295Z,16.40
2023-04-18T07:00:20.833Z,16.40
2023-04-18T07:02:48.378Z,16.40
2023-04-18T07:05:15.703Z,16.40
2023-04-18T07:07:42.847Z,16.40
2023-04-18T07:10:11.583Z,16.50
2023-04-18T07:12:38.811Z,16.50
2023-04-18T07:15:06.613Z,16.50
2023-04-18T07:17:33.908Z,16.50
2023-04-18T07:20:01.334Z,16.50
2023-04-18T07:22:28.546Z,16.60
2023-04-18T07:24:55.658Z,16.60
2023-04-18T07:27:22.798Z,16.60
2023-04-18T07:29:49.930Z,16.60
2023-04-18T07:32:17.141Z,16.70
2023-04-18T07:34:45.173Z,16.70
2023-04-18T07:37:14.748Z,16.70
2023-04-18T07:39:42.194Z,16.80
2023-04-18T07:42:10.000Z,16.80
2023-04-18T07:44:37.099Z,16.80
2023-04-18T07:47:10.125Z,16.90
2023-04-18T07:49:37.837Z,16.90
2023-04-18T07:52:05.214Z,16.90
2023-04-18T07:54:32.656Z,16.90
2023-04-18T07:57:00.854Z,17.00
2023-04-18T07:59:29.733Z,17.00
2023-04-18T08:01:56.941Z,17.00
2023-04-18T08:04:25.412Z,17.00
2023-04-18T08:06:53.941Z,17.10
2023-04-18T08:09:22.493Z,17.10
2023-04-18T08:11:49.600Z,17.10
2023-04-18T08:14:16.792Z,17.10
2023-04-18T08:16:43.977Z,17.10
2023-04-18T08:19:11.217Z,17.10
2023-04-18T08:21:39.337Z,17.20
2023-04-18T08:24:06.873Z,17.20
2023-04-18T08:26:33.939Z,17.20
2023-04-18T08:29:01.110Z,17.30
2023-04-18T08:31:28.336Z,17.30
2023-04-18T08:33:55.539Z,17.30
2023-04-18T08:36:22.944Z,17.30
2023-04-18T08:38:50.225Z,17.40
2023-04-18T08:41:22.743Z,17.40
2023-04-18T08:43:49.903Z,17.40
2023-04-18T08:46:17.461Z,17.40
2023-04-18T08:48:45.087Z,17.50
2023-04-18T08:51:12.311Z,17.50
2023-04-18T08:53:39.667Z,17.50
2023-04-18T08:56:10.405Z,17.60
2023-04-18T08:58:37.549Z,17.60
2023-04-18T09:01:04.789Z,17.60
2023-04-18T09:03:37.515Z,17.60
2023-04-18T09:06:19.433Z,17.60
2023-04-18T09:08:58.749Z,17.70
2023-04-18T09:11:29.831Z,17.70
2023-04-18T09:13:59.037Z,17.70
2023-04-18T09:16:27.863Z,17.70
2023-04-18T09:19:18.441Z,17.80
2023-04-18T09:21:47.168Z,17.80
2023-04-18T09:24:26.892Z,17.80
2023-04-18T09:26:56.025Z,17.90
2023-04-18T09:29:43.477Z,17.90
2023-04-18T09:32:10.675Z,17.90
2023-04-18T09:34:42.591Z,18.00
2023-04-18T09:37:12.006Z,18.00
2023-04-18T09:39:43.971Z,18.10
2023-04-18T09:42:11.768Z,18.10
2023-04-18T09:44:58.060Z,18.20
2023-04-18T09:47:26.433Z,18.20
2023-04-18T09:49:53.639Z,18.30
2023-04-18T09:52:21.393Z,18.30
2023-04-18T09:54:49.713Z,18.30
2023-04-18T09:57:17.841Z,18.30
2023-04-18T09:59:58.862Z,18.40
2023-04-18T10:02:30.656Z,18.40
2023-04-18T10:04:59.444Z,18.50
2023-04-18T10:07:27.668Z,18.50
2023-04-18T10:09:54.956Z,18.40
2023-04-18T10:12:22.363Z,18.50
2023-04-18T10:14:50.318Z,18.50
2023-04-18T10:17:17.726Z,18.50
2023-04-18T10:19:46.737Z,18.50
2023-04-18T10:22:13.970Z,18.50
2023-04-18T10:24:49.647Z,18.50
2023-04-18T10:27:17.846Z,18.60
2023-04-18T10:29:52.927Z,18.60
2023-04-18T10:32:23.488Z,18.70
2023-04-18T10:34:53.467Z,18.70
2023-04-18T10:37:20.742Z,18.80
2023-04-18T10:40:01.089Z,18.80
2023-04-18T10:42:46.764Z,18.80
2023-04-18T10:45:22.094Z,18.80
2023-04-18T10:47:49.895Z,18.90
2023-04-18T10:50:17.667Z,18.90
2023-04-18T10:52:44.870Z,19.00
2023-04-18T10:55:24.039Z,19.00
2023-04-18T10:57:51.562Z,19.10
2023-04-18T11:00:21.460Z,19.10
2023-04-18T11:02:55.932Z,19.20
2023-04-18T11:05:26.600Z,19.20
2023-04-18T11:07:54.584Z,19.20
2023-04-18T11:10:24.703Z,19.20
2023-04-18T11:12:53.091Z,19.20
2023-04-18T11:15:22.816Z,19.20
2023-04-18T11:18:01.159Z,19.20
2023-04-18T11:20:30.055Z,19.20
2023-04-18T11:22:59.878Z,19.30
2023-04-18T11:25:32.162Z,19.30
2023-04-18T11:28:01.408Z,19.40
2023-04-18T11:30:36.438Z,19.40
2023-04-18T11:33:08.487Z,19.40
2023-04-18T11:35:39.971Z,19.40
2023-04-18T11:38:08.443Z,19.40
2023-04-18T11:40:36.996Z,19.40
2023-04-18T11:43:06.162Z,19.50
2023-04-18T11:45:34.005Z,19.50
2023-04-18T11:48:01.681Z,19.50
2023-04-18T11:50:28.998Z,19.50
2023-04-18T11:52:56.465Z,19.50
2023-04-18T11:55:27.067Z,19.60
2023-04-18T11:57:56.015Z,19.60
2023-04-18T12:00:42.171Z,19.70
2023-04-18T12:03:17.997Z,19.70
2023-04-18T12:05:45.737Z,19.70
2023-04-18T12:08:20.597Z,19.70
2023-04-18T12:10:53.445Z,19.70
2023-04-18T12:13:32.132Z,19.70
2023-04-18T12:16:02.166Z,19.70
2023-04-18T12:18:29.951Z,19.70
2023-04-18T12:20:58.626Z,19.80
2023-04-18T12:23:33.758Z,19.80
2023-04-18T12:26:06.174Z,19.80
2023-04-18T12:28:34.586Z,19.80
2023-04-18T12:31:02.162Z,19.80
2023-04-18T12:33:30.550Z,19.80
2023-04-18T12:35:57.810Z,19.80
2023-04-18T12:38:27.473Z,19.90
2023-04-18T12:40:54.795Z,19.90
2023-04-18T12:43:22.090Z,20.00
2023-04-18T12:45:50.846Z,20.00
2023-04-18T12:48:18.179Z,20.10
2023-04-18T12:50:45.326Z,20.10
2023-04-18T12:53:12.522Z,20.10
2023-04-18T12:55:39.737Z,20.10
2023-04-18T12:58:06.885Z,20.20
2023-04-18T13:00:34.297Z,20.20
2023-04-18T13:03:02.322Z,20.20
2023-04-18T13:05:32.998Z,20.30
2023-04-18T13:10:31.992Z,20.40
2023-04-18T13:12:59.161Z,20.40
2023-04-18T13:15:27.490Z,20.50
2023-04-18T13:17:56.667Z,20.50
2023-04-18T13:20:24.208Z,20.50
2023-04-18T13:22:51.296Z,20.60
2023-04-18T13:25:18.242Z,20.60
2023-04-18T13:27:45.934Z,20.60
2023-04-18T13:30:13.349Z,20.70
2023-04-18T13:32:41.225Z,20.70
2023-04-18T13:35:12.946Z,20.80
2023-04-18T13:37:39.960Z,20.90
2023-04-18T13:40:07.783Z,20.90
2023-04-18T13:42:36.670Z,20.90
2023-04-18T13:45:04.473Z,21.00
2023-04-18T13:47:31.926Z,21.00
2023-04-18T13:49:58.962Z,21.00
2023-04-18T13:52:26.289Z,21.10
2023-04-18T13:54:53.510Z,21.10
2023-04-18T13:57:20.923Z,21.20
2023-04-18T13:59:47.983Z,21.20
2023-04-18T14:02:15.158Z,21.30
2023-04-18T14:04:42.370Z,21.40
2023-04-18T14:07:09.532Z,21.50
2023-04-18T14:09:36.450Z,21.50
2023-04-18T14:12:03.600Z,21.60
2023-04-18T14:14:30.826Z,21.70
2023-04-18T14:16:57.892Z,21.80
2023-04-18T14:19:25.081Z,21.90
2023-04-18T14:21:52.095Z,22.00
2023-04-18T14:24:19.098Z,22.10
2023-04-18T14:26:46.057Z,22.10
2023-04-18T14:29:14.342Z,22.20
2023-04-18T14:31:41.852Z,22.30
2023-04-18T14:34:09.794Z,22.40
2023-04-18T14:36:37.163Z,22.50
2023-04-18T14:39:04.813Z,22.60
2023-04-18T14:41:31.922Z,22.70
2023-04-18T14:43:59.337Z,22.90
2023-04-18T14:46:28.284Z,23.00
2023-04-18T14:48:55.352Z,23.10
2023-04-18T14:51:23.516Z,23.20
2023-04-18T14:53:50.547Z,23.30
2023-04-18T14:56:20.926Z,23.40
2023-04-18T14:58:48.174Z,23.60
2023-04-18T15:01:17.886Z,23.70
2023-04-18T15:03:45.483Z,23.80
2023-04-18T15:06:12.644Z,24.00
2023-04-18T15:08:39.641Z,24.30
2023-04-18T15:11:07.529Z,24.60
2023-04-18T15:13:34.589Z,25.20
2023-04-18T15:16:01.849Z,25.80
2023-04-18T15:18:28.998Z,26.50
2023-04-18T15:20:57.010Z,27.10
2023-04-18T15:23:24.112Z,27.50
2023-04-18T15:25:51.123Z,28.00
2023-04-18T15:28:19.488Z,28.60
2023-04-18T15:30:46.682Z,29.00
2023-04-18T15:33:13.986Z,29.00
2023-04-18T15:35:41.002Z,29.10
2023-04-18T15:38:08.133Z,29.30
2023-04-18T15:40:36.489Z,29.10
2023-04-18T15:43:04.152Z,29.00
2023-04-18T15:45:31.344Z,28.60
2023-04-18T15:47:58.753Z,28.10
2023-04-18T15:50:26.115Z,27.60
2023-04-18T15:52:53.072Z,27.30
2023-04-18T15:55:20.017Z,27.20
2023-04-18T15:57:47.044Z,27.20
2023-04-18T16:00:17.521Z,27.10
2023-04-18T16:02:45.845Z,27.00
2023-04-18T16:05:13.733Z,26.80
2023-04-18T16:07:41.415Z,26.60
2023-04-18T16:10:10.321Z,26.30
2023-04-18T16:12:38.984Z,26.20
2023-04-18T16:15:08.347Z,26.00
2023-04-18T16:17:36.917Z,25.80
2023-04-18T16:20:05.958Z,25.80
2023-04-18T16:22:32.981Z,25.80
2023-04-18T16:24:59.947Z,25.80
2023-04-18T16:27:27.080Z,25.80
2023-04-18T16:29:54.306Z,25.80
2023-04-18T16:32:21.375Z,25.90
2023-04-18T16:34:48.563Z,26.00
2023-04-18T16:37:15.954Z,26.00
2023-04-18T16:39:42.928Z,26.00
2023-04-18T16:42:10.167Z,26.00
2023-04-18T16:44:37.246Z,26.00
2023-04-18T16:47:06.039Z,26.00
2023-04-18T16:49:33.030Z,25.90
2023-04-18T16:52:00.149Z,25.90
2023-04-18T16:54:27.323Z,25.80
2023-04-18T16:56:54.243Z,25.70
2023-04-18T16:59:21.299Z,25.50
2023-04-18T17:01:48.250Z,25.40
2023-04-18T17:04:16.030Z,25.30
2023-04-18T17:06:43.794Z,25.20
2023-04-18T17:09:13.452Z,25.10
2023-04-18T17:11:41.507Z,25.00
2023-04-18T17:14:08.815Z,24.90
2023-04-18T17:16:40.086Z,24.80
2023-04-18T17:19:07.844Z,24.70
2023-04-18T17:21:35.885Z,24.60
2023-04-18T17:24:09.821Z,24.60
2023-04-18T17:26:39.685Z,24.50
2023-04-18T17:29:06.684Z,24.40
2023-04-18T17:31:34.057Z,24.30
2023-04-18T17:34:01.088Z,24.20
2023-04-18T17:36:28.111Z,24.00
2023-04-18T17:38:55.871Z,23.90
2023-04-18T17:41:24.917Z,23.80
2023-04-18T17:43:51.932Z,23.70
2023-04-18T17:46:19.028Z,23.50
2023-04-18T17:48:46.056Z,23.40
2023-04-18T17:51:13.134Z,23.30
2023-04-18T17:53:40.137Z,23.20
2023-04-18T17:56:07.200Z,23.10
2023-04-18T17:58:34.198Z,23.00
2023-04-18T18:01:01.160Z,22.80
2023-04-18T18:03:28.357Z,22.80
2023-04-18T18:05:55.485Z,22.70
2023-04-18T18:08:22.754Z,22.50
2023-04-18T18:10:49.969Z,22.40
2023-04-18T18:13:17.005Z,22.40
2023-04-18T18:15:43.981Z,22.30
2023-04-18T18:18:11.455Z,22.20
2023-04-18T18:20:40.839Z,22.10
2023-04-18T18:23:08.916Z,22.10
2023-04-18T18:25:37.712Z,22.00
2023-04-18T18:28:04.819Z,22.00
2023-04-18T18:30:31.826Z,21.90
2023-04-18T18:32:59.092Z,21.80
2023-04-18T18:35:26.143Z,21.70
2023-04-18T18:37:53.096Z,21.70
2023-04-18T18:40:20.389Z,21.70
2023-04-18T18:42:51.286Z,21.60
2023-04-18T18:45:19.792Z,21.50
2023-04-18T18:47:47.143Z,21.50
2023-04-18T18:50:14.690Z,21.40
2023-04-18T18:52:43.191Z,21.40
2023-04-18T18:55:11.270Z,21.40
2023-04-18T18:57:38.222Z,21.30
2023-04-18T19:00:13.386Z,21.30
2023-04-18T19:02:40.754Z,21.20
2023-04-18T19:05:08.173Z,21.10
2023-04-18T19:07:35.100Z,21.10
2023-04-18T19:10:02.114Z,21.10
2023-04-18T19:12:29.435Z,21.10
2023-04-18T19:14:56.545Z,21.00
2023-04-18T19:17:24.880Z,21.00
2023-04-18T19:19:53.097Z,21.00
2023-04-18T19:22:20.068Z,20.90
2023-04-18T19:24:47.477Z,20.90
2023-04-18T19:27:14.565Z,20.90
2023-04-18T19:29:41.629Z,20.80
2023-04-18T19:32:08.663Z,20.80
2023-04-18T19:34:35.919Z,20.80
2023-04-18T19:37:03.644Z,20.70
2023-04-18T19:39:30.717Z,20.70
2023-04-18T19:41:57.629Z,20.70
2023-04-18T19:44:24.710Z,20.60
2023-04-18T19:46:51.647Z,20.60
2023-04-18T19:49:18.676Z,20.50
2023-04-18T19:51:45.716Z,20.50
2023-04-18T19:54:13.316Z,20.50
2023-04-18T19:56:40.331Z,20.40
2023-04-18T19:59:07.289Z,20.40
2023-04-18T20:01:34.277Z,20.40
2023-04-18T20:04:01.622Z,20.30
2023-04-18T20:06:29.329Z,20.30
2023-04-18T20:08:56.313Z,20.30
2023-04-18T20:11:24.541Z,20.20
2023-04-18T20:13:52.267Z,20.20
2023-04-18T20:16:19.239Z,20.20
2023-04-18T20:18:47.273Z,20.10
2023-04-18T20:21:14.699Z,20.10
2023-04-18T20:23:42.725Z,20.00
2023-04-18T20:26:09.751Z,20.00
2023-04-18T20:28:37.879Z,20.00
2023-04-18T20:31:05.110Z,20.00
2023-04-18T20:33:32.914Z,19.90
2023-04-18T20:35:59.958Z,19.90
2023-04-18T20:38:29.568Z,19.90
2023-04-18T20:40:58.802Z,19.80
2023-04-18T20:43:26.803Z,19.80
2023-04-18T20:45:54.575Z,19.70
2023-04-18T20:48:21.698Z,19.70
2023-04-18T20:50:51.698Z,19.70
2023-04-18T20:53:27.162Z,19.60
2023-04-18T20:55:55.108Z,19.60
2023-04-18T20:58:22.149Z,19.60
2023-04-18T21:00:49.052Z,19.60
2023-04-18T21:03:16.626Z,19.50
2023-04-18T21:05:44.932Z,19.50
2023-04-18T21:08:12.089Z,19.50
2023-04-18T21:10:39.780Z,19.40
2023-04-18T21:13:06.900Z,19.50
2023-04-18T21:15:35.581Z,19.40
2023-04-18T21:18:02.585Z,19.40
2023-04-18T21:20:29.623Z,19.40
2023-04-18T21:22:56.557Z,19.40
2023-04-18T21:25:23.489Z,19.40
2023-04-18T21:27:53.390Z,19.40
2023-04-18T21:30:21.058Z,19.40
2023-04-18T21:32:49.216Z,19.30
2023-04-18T21:35:19.413Z,19.30
2023-04-18T21:37:47.169Z,19.30
2023-04-18T21:40:14.621Z,19.30
2023-04-18T21:42:41.742Z,19.30
2023-04-18T21:45:10.966Z,19.30
2023-04-18T21:47:38.458Z,19.20
2023-04-18T21:50:06.167Z,19.20
2023-04-18T21:52:33.170Z,19.20
2023-04-18T21:55:00.471Z,19.20
2023-04-18T21:57:27.445Z,19.20
2023-04-18T21:59:57.435Z,19.20
2023-04-18T22:02:25.944Z,19.20
2023-04-18T22:04:53.143Z,19.20
2023-04-18T22:07:20.110Z,19.20
2023-04-18T22:09:47.164Z,19.10
2023-04-18T22:12:14.415Z,19.20
2023-04-18T22:14:42.458Z,19.10
2023-04-18T22:17:09.941Z,19.20
2023-04-18T22:19:36.862Z,19.10
2023-04-18T22:22:03.759Z,19.10
2023-04-18T22:24:30.721Z,19.10
2023-04-18T22:26:57.657Z,19.10
2023-04-18T22:29:24.540Z,19.10
2023-04-18T22:31:51.722Z,19.10
2023-04-18T22:34:18.629Z,19.10
2023-04-18T22:36:45.663Z,19.10
2023-04-18T22:39:12.619Z,19.10
2023-04-18T22:41:39.582Z,19.10
2023-04-18T22:44:06.626Z,19.10
2023-04-18T22:46:33.761Z,19.00
2023-04-18T22:49:00.735Z,19.00
2023-04-18T22:51:28.730Z,19.00
2023-04-18T22:53:56.484Z,19.00
2023-04-18T22:56:23.548Z,19.00
2023-04-18T22:58:50.893Z,19.00
2023-04-18T23:01:18.064Z,19.00
2023-04-18T23:03:45.199Z,19.00
2023-04-18T23:06:12.362Z,18.90
2023-04-18T23:08:39.349Z,18.90
2023-04-18T23:11:06.303Z,18.90
2023-04-18T23:13:33.215Z,18.90
2023-04-18T23:16:00.226Z,18.80
2023-04-18T23:18:29.941Z,18.80
2023-04-18T23:20:56.859Z,18.80
2023-04-18T23:23:23.828Z,18.80
2023-04-18T23:25:50.809Z,18.80
2023-04-18T23:28:18.674Z,18.80
2023-04-18T23:30:45.674Z,18.70
2023-04-18T23:33:12.624Z,18.70
2023-04-18T23:35:39.664Z,18.70
2023-04-18T23:38:06.654Z,18.70
2023-04-18T23:40:33.655Z,18.70
2023-04-18T23:43:01.399Z,18.60
2023-04-18T23:45:31.460Z,18.60
2023-04-18T23:47:58.463Z,18.60
2023-04-18T23:50:25.378Z,18.60
2023-04-18T23:52:52.295Z,18.50
2023-04-18T23:55:19.275Z,18.50
2023-04-18T23:57:46.258Z,18.40
